sensor_id;sensor_type;location;lat;lon;timestamp;P1;durP1;ratioP1;P2;durP2;ratioP2
10403;SDS011;5248;47.374;8.486;2023-03-05T00:00:27;46.63;;;28.70;;
10403;SDS011;5248;47.374;8.486;2023-03-05T00:02:54;40.43;;;27.77;;
10403;SDS011;5248;47.374;8.486;2023-03-05T00:05:20;43.73;;;27.60;;
10403;SDS011;5248;47.374;8.486;2023-03-05T00:07:47;42.30;;;26.93;;
10403;SDS011;5248;47.374;8.486;2023-03-05T00:10:13;40.20;;;27.30;;
10403;SDS011;5248;47.374;8.486;2023-03-05T00:12:42;37.03;;;26.07;;
10403;SDS011;5248;47.374;8.486;2023-03-05T00:15:08;39.50;;;27.40;;
10403;SDS011;5248;47.374;8.486;2023-03-05T00:17:35;40.67;;;27.07;;
10403;SDS011;5248;47.374;8.486;2023-03-05T00:20:02;39.90;;;26.50;;
10403;SDS011;5248;47.374;8.486;2023-03-05T00:22:29;42.43;;;27.53;;
10403;SDS011;5248;47.374;8.486;2023-03-05T00:24:55;40.73;;;26.77;;
10403;SDS011;5248;47.374;8.486;2023-03-05T00:27:22;46.90;;;28.23;;
10403;SDS011;5248;47.374;8.486;2023-03-05T00:29:50;40.47;;;26.13;;
10403;SDS011;5248;47.374;8.486;2023-03-05T00:32:17;40.63;;;26.90;;
10403;SDS011;5248;47.374;8.486;2023-03-05T00:34:44;40.53;;;27.50;;
10403;SDS011;5248;47.374;8.486;2023-03-05T00:37:10;45.10;;;27.73;;
10403;SDS011;5248;47.374;8.486;2023-03-05T00:39:38;43.83;;;28.77;;
10403;SDS011;5248;47.374;8.486;2023-03-05T00:42:05;42.07;;;27.33;;
10403;SDS011;5248;47.374;8.486;2023-03-05T00:44:32;41.77;;;27.37;;
10403;SDS011;5248;47.374;8.486;2023-03-05T00:46:59;42.57;;;26.87;;
10403;SDS011;5248;47.374;8.486;2023-03-05T00:49:26;39.80;;;26.90;;
10403;SDS011;5248;47.374;8.486;2023-03-05T00:51:52;44.27;;;27.30;;
10403;SDS011;5248;47.374;8.486;2023-03-05T00:54:19;42.80;;;27.93;;
10403;SDS011;5248;47.374;8.486;2023-03-05T00:56:46;45.93;;;28.80;;
10403;SDS011;5248;47.374;8.486;2023-03-05T00:59:14;44.27;;;27.90;;
10403;SDS011;5248;47.374;8.486;2023-03-05T01:01:40;42.43;;;27.03;;
10403;SDS011;5248;47.374;8.486;2023-03-05T01:04:08;43.70;;;27.17;;
10403;SDS011;5248;47.374;8.486;2023-03-05T01:06:35;40.50;;;26.73;;
10403;SDS011;5248;47.374;8.486;2023-03-05T01:09:06;44.40;;;27.90;;
10403;SDS011;5248;47.374;8.486;2023-03-05T01:11:34;39.47;;;27.60;;
10403;SDS011;5248;47.374;8.486;2023-03-05T01:14:03;41.77;;;26.63;;
10403;SDS011;5248;47.374;8.486;2023-03-05T01:16:30;41.53;;;27.30;;
10403;SDS011;5248;47.374;8.486;2023-03-05T01:18:56;43.47;;;27.80;;
10403;SDS011;5248;47.374;8.486;2023-03-05T01:21:24;40.97;;;26.53;;
10403;SDS011;5248;47.374;8.486;2023-03-05T01:23:50;41.57;;;26.10;;
10403;SDS011;5248;47.374;8.486;2023-03-05T01:26:17;42.53;;;28.93;;
10403;SDS011;5248;47.374;8.486;2023-03-05T01:28:43;41.20;;;27.20;;
10403;SDS011;5248;47.374;8.486;2023-03-05T01:31:10;41.90;;;27.40;;
10403;SDS011;5248;47.374;8.486;2023-03-05T01:33:37;39.27;;;26.97;;
10403;SDS011;5248;47.374;8.486;2023-03-05T01:36:05;40.30;;;27.70;;
10403;SDS011;5248;47.374;8.486;2023-03-05T01:38:35;42.33;;;27.03;;
10403;SDS011;5248;47.374;8.486;2023-03-05T01:41:02;40.23;;;26.17;;
10403;SDS011;5248;47.374;8.486;2023-03-05T01:43:28;41.40;;;25.87;;
10403;SDS011;5248;47.374;8.486;2023-03-05T01:48:56;44.77;;;25.70;;
10403;SDS011;5248;47.374;8.486;2023-03-05T01:51:28;43.77;;;27.40;;
10403;SDS011;5248;47.374;8.486;2023-03-05T01:53:57;42.00;;;26.30;;
10403;SDS011;5248;47.374;8.486;2023-03-05T01:56:26;44.47;;;27.23;;
10403;SDS011;5248;47.374;8.486;2023-03-05T01:58:54;39.53;;;27.00;;
10403;SDS011;5248;47.374;8.486;2023-03-05T02:01:27;42.23;;;27.33;;
10403;SDS011;5248;47.374;8.486;2023-03-05T02:03:55;40.30;;;27.57;;
10403;SDS011;5248;47.374;8.486;2023-03-05T02:06:21;41.10;;;27.37;;
10403;SDS011;5248;47.374;8.486;2023-03-05T02:08:48;38.50;;;26.07;;
10403;SDS011;5248;47.374;8.486;2023-03-05T02:11:15;43.77;;;26.73;;
10403;SDS011;5248;47.374;8.486;2023-03-05T02:13:42;41.07;;;27.20;;
10403;SDS011;5248;47.374;8.486;2023-03-05T02:16:08;42.10;;;27.60;;
10403;SDS011;5248;47.374;8.486;2023-03-05T02:18:35;37.10;;;26.23;;
10403;SDS011;5248;47.374;8.486;2023-03-05T02:21:04;37.60;;;26.60;;
10403;SDS011;5248;47.374;8.486;2023-03-05T02:23:32;38.73;;;26.63;;
10403;SDS011;5248;47.374;8.486;2023-03-05T02:26:00;43.03;;;26.43;;
10403;SDS011;5248;47.374;8.486;2023-03-05T02:28:29;44.00;;;26.60;;
10403;SDS011;5248;47.374;8.486;2023-03-05T02:30:57;42.20;;;26.83;;
10403;SDS011;5248;47.374;8.486;2023-03-05T02:33:24;42.43;;;26.63;;
10403;SDS011;5248;47.374;8.486;2023-03-05T02:35:53;43.33;;;26.67;;
10403;SDS011;5248;47.374;8.486;2023-03-05T02:38:21;42.23;;;27.23;;
10403;SDS011;5248;47.374;8.486;2023-03-05T02:40:49;42.80;;;27.30;;
10403;SDS011;5248;47.374;8.486;2023-03-05T02:43:15;41.07;;;26.57;;
10403;SDS011;5248;47.374;8.486;2023-03-05T02:45:42;38.23;;;25.60;;
10403;SDS011;5248;47.374;8.486;2023-03-05T02:48:09;39.53;;;26.63;;
10403;SDS011;5248;47.374;8.486;2023-03-05T02:50:35;40.10;;;26.23;;
10403;SDS011;5248;47.374;8.486;2023-03-05T02:53:03;48.40;;;27.93;;
10403;SDS011;5248;47.374;8.486;2023-03-05T02:55:31;44.50;;;27.33;;
10403;SDS011;5248;47.374;8.486;2023-03-05T02:57:58;44.63;;;27.33;;
10403;SDS011;5248;47.374;8.486;2023-03-05T03:00:24;42.43;;;28.07;;
10403;SDS011;5248;47.374;8.486;2023-03-05T03:02:51;46.17;;;27.00;;
10403;SDS011;5248;47.374;8.486;2023-03-05T03:05:18;41.47;;;26.27;;
10403;SDS011;5248;47.374;8.486;2023-03-05T03:07:44;40.53;;;26.27;;
10403;SDS011;5248;47.374;8.486;2023-03-05T03:10:11;42.50;;;26.40;;
10403;SDS011;5248;47.374;8.486;2023-03-05T03:12:41;40.40;;;26.77;;
10403;SDS011;5248;47.374;8.486;2023-03-05T03:15:09;41.77;;;26.23;;
10403;SDS011;5248;47.374;8.486;2023-03-05T03:17:38;38.30;;;26.30;;
10403;SDS011;5248;47.374;8.486;2023-03-05T03:20:06;47.07;;;27.90;;
10403;SDS011;5248;47.374;8.486;2023-03-05T03:22:34;45.10;;;27.83;;
10403;SDS011;5248;47.374;8.486;2023-03-05T03:25:01;41.70;;;26.77;;
10403;SDS011;5248;47.374;8.486;2023-03-05T03:27:28;41.70;;;26.37;;
10403;SDS011;5248;47.374;8.486;2023-03-05T03:29:56;41.33;;;26.90;;
10403;SDS011;5248;47.374;8.486;2023-03-05T03:32:26;42.50;;;26.63;;
10403;SDS011;5248;47.374;8.486;2023-03-05T03:34:53;45.40;;;27.97;;
10403;SDS011;5248;47.374;8.486;2023-03-05T03:37:19;41.87;;;27.10;;
10403;SDS011;5248;47.374;8.486;2023-03-05T03:39:47;42.67;;;26.73;;
10403;SDS011;5248;47.374;8.486;2023-03-05T03:42:15;46.17;;;27.43;;
10403;SDS011;5248;47.374;8.486;2023-03-05T03:44:43;42.77;;;26.93;;
10403;SDS011;5248;47.374;8.486;2023-03-05T03:47:11;40.20;;;26.47;;
10403;SDS011;5248;47.374;8.486;2023-03-05T03:49:39;44.33;;;27.70;;
10403;SDS011;5248;47.374;8.486;2023-03-05T03:52:06;45.23;;;27.77;;
10403;SDS011;5248;47.374;8.486;2023-03-05T03:54:33;44.53;;;28.57;;
10403;SDS011;5248;47.374;8.486;2023-03-05T03:56:59;47.33;;;27.87;;
10403;SDS011;5248;47.374;8.486;2023-03-05T03:59:26;41.87;;;26.57;;
10403;SDS011;5248;47.374;8.486;2023-03-05T04:01:52;41.83;;;27.23;;
10403;SDS011;5248;47.374;8.486;2023-03-05T04:04:20;42.17;;;26.93;;
10403;SDS011;5248;47.374;8.486;2023-03-05T04:06:50;41.73;;;26.90;;
10403;SDS011;5248;47.374;8.486;2023-03-05T04:09:16;40.70;;;25.83;;
10403;SDS011;5248;47.374;8.486;2023-03-05T04:11:43;42.63;;;27.07;;
10403;SDS011;5248;47.374;8.486;2023-03-05T04:14:09;41.70;;;26.13;;
10403;SDS011;5248;47.374;8.486;2023-03-05T04:16:36;42.23;;;27.10;;
10403;SDS011;5248;47.374;8.486;2023-03-05T04:19:02;43.23;;;27.20;;
10403;SDS011;5248;47.374;8.486;2023-03-05T04:21:30;43.23;;;26.93;;
10403;SDS011;5248;47.374;8.486;2023-03-05T04:23:56;42.27;;;27.10;;
10403;SDS011;5248;47.374;8.486;2023-03-05T04:26:23;40.20;;;26.37;;
10403;SDS011;5248;47.374;8.486;2023-03-05T04:28:50;41.30;;;26.27;;
10403;SDS011;5248;47.374;8.486;2023-03-05T04:31:16;44.33;;;27.43;;
10403;SDS011;5248;47.374;8.486;2023-03-05T04:33:44;39.77;;;27.03;;
10403;SDS011;5248;47.374;8.486;2023-03-05T04:36:13;42.23;;;27.57;;
10403;SDS011;5248;47.374;8.486;2023-03-05T04:38:42;41.57;;;26.37;;
10403;SDS011;5248;47.374;8.486;2023-03-05T04:41:08;39.20;;;25.80;;
10403;SDS011;5248;47.374;8.486;2023-03-05T04:43:35;41.10;;;27.00;;
10403;SDS011;5248;47.374;8.486;2023-03-05T04:46:01;39.70;;;25.67;;
10403;SDS011;5248;47.374;8.486;2023-03-05T04:48:28;44.80;;;27.00;;
10403;SDS011;5248;47.374;8.486;2023-03-05T04:50:55;41.17;;;26.27;;
10403;SDS011;5248;47.374;8.486;2023-03-05T04:53:22;39.50;;;26.57;;
10403;SDS011;5248;47.374;8.486;2023-03-05T04:55:52;43.37;;;27.47;;
10403;SDS011;5248;47.374;8.486;2023-03-05T04:58:18;40.33;;;25.80;;
10403;SDS011;5248;47.374;8.486;2023-03-05T05:00:45;45.13;;;27.50;;
10403;SDS011;5248;47.374;8.486;2023-03-05T05:03:11;39.80;;;27.03;;
10403;SDS011;5248;47.374;8.486;2023-03-05T05:05:38;42.87;;;28.10;;
10403;SDS011;5248;47.374;8.486;2023-03-05T05:08:05;37.17;;;25.57;;
10403;SDS011;5248;47.374;8.486;2023-03-05T05:10:31;38.30;;;26.37;;
10403;SDS011;5248;47.374;8.486;2023-03-05T05:12:59;42.83;;;26.47;;
10403;SDS011;5248;47.374;8.486;2023-03-05T05:15:25;41.57;;;27.27;;
10403;SDS011;5248;47.374;8.486;2023-03-05T05:17:52;41.10;;;27.83;;
10403;SDS011;5248;47.374;8.486;2023-03-05T05:20:18;44.50;;;27.43;;
10403;SDS011;5248;47.374;8.486;2023-03-05T05:22:45;46.03;;;27.93;;
10403;SDS011;5248;47.374;8.486;2023-03-05T05:25:11;45.40;;;28.37;;
10403;SDS011;5248;47.374;8.486;2023-03-05T05:27:39;43.83;;;27.13;;
10403;SDS011;5248;47.374;8.486;2023-03-05T05:30:07;39.13;;;26.60;;
10403;SDS011;5248;47.374;8.486;2023-03-05T05:32:35;44.57;;;26.53;;
10403;SDS011;5248;47.374;8.486;2023-03-05T05:35:01;41.30;;;27.37;;
10403;SDS011;5248;47.374;8.486;2023-03-05T05:37:29;43.37;;;28.80;;
10403;SDS011;5248;47.374;8.486;2023-03-05T05:39:56;45.50;;;26.80;;
10403;SDS011;5248;47.374;8.486;2023-03-05T05:42:23;42.63;;;27.70;;
10403;SDS011;5248;47.374;8.486;2023-03-05T05:44:50;41.60;;;24.93;;
10403;SDS011;5248;47.374;8.486;2023-03-05T05:47:18;43.07;;;26.50;;
10403;SDS011;5248;47.374;8.486;2023-03-05T05:49:44;43.07;;;26.97;;
10403;SDS011;5248;47.374;8.486;2023-03-05T05:52:11;48.83;;;28.90;;
10403;SDS011;5248;47.374;8.486;2023-03-05T05:54:41;45.17;;;27.10;;
10403;SDS011;5248;47.374;8.486;2023-03-05T05:57:07;40.07;;;27.30;;
10403;SDS011;5248;47.374;8.486;2023-03-05T05:59:35;42.37;;;26.53;;
10403;SDS011;5248;47.374;8.486;2023-03-05T06:02:04;39.03;;;25.60;;
10403;SDS011;5248;47.374;8.486;2023-03-05T06:04:33;43.50;;;27.20;;
10403;SDS011;5248;47.374;8.486;2023-03-05T06:06:59;47.13;;;28.20;;
10403;SDS011;5248;47.374;8.486;2023-03-05T06:09:27;42.27;;;27.60;;
10403;SDS011;5248;47.374;8.486;2023-03-05T06:11:53;42.03;;;28.67;;
10403;SDS011;5248;47.374;8.486;2023-03-05T06:14:20;44.50;;;27.33;;
10403;SDS011;5248;47.374;8.486;2023-03-05T06:16:47;40.73;;;27.03;;
10403;SDS011;5248;47.374;8.486;2023-03-05T06:19:14;41.83;;;27.03;;
10403;SDS011;5248;47.374;8.486;2023-03-05T06:21:42;40.97;;;26.73;;
10403;SDS011;5248;47.374;8.486;2023-03-05T06:24:09;41.93;;;27.37;;
10403;SDS011;5248;47.374;8.486;2023-03-05T06:26:37;43.83;;;27.63;;
10403;SDS011;5248;47.374;8.486;2023-03-05T06:29:04;42.27;;;26.10;;
10403;SDS011;5248;47.374;8.486;2023-03-05T06:31:30;43.27;;;27.23;;
10403;SDS011;5248;47.374;8.486;2023-03-05T06:33:57;42.27;;;27.13;;
10403;SDS011;5248;47.374;8.486;2023-03-05T06:36:26;44.57;;;26.87;;
10403;SDS011;5248;47.374;8.486;2023-03-05T06:38:54;42.07;;;27.27;;
10403;SDS011;5248;47.374;8.486;2023-03-05T06:41:22;40.50;;;26.63;;
10403;SDS011;5248;47.374;8.486;2023-03-05T06:43:52;43.63;;;26.77;;
10403;SDS011;5248;47.374;8.486;2023-03-05T06:46:19;44.03;;;26.23;;
10403;SDS011;5248;47.374;8.486;2023-03-05T06:48:47;41.40;;;26.27;;
10403;SDS011;5248;47.374;8.486;2023-03-05T06:51:15;43.00;;;25.73;;
10403;SDS011;5248;47.374;8.486;2023-03-05T06:53:42;39.60;;;26.87;;
10403;SDS011;5248;47.374;8.486;2023-03-05T06:56:10;41.33;;;26.87;;
10403;SDS011;5248;47.374;8.486;2023-03-05T06:58:38;43.33;;;26.67;;
10403;SDS011;5248;47.374;8.486;2023-03-05T07:01:05;42.33;;;27.20;;
10403;SDS011;5248;47.374;8.486;2023-03-05T07:03:32;41.70;;;27.23;;
10403;SDS011;5248;47.374;8.486;2023-03-05T07:06:01;37.10;;;25.73;;
10403;SDS011;5248;47.374;8.486;2023-03-05T07:08:28;40.63;;;26.20;;
10403;SDS011;5248;47.374;8.486;2023-03-05T07:10:55;43.33;;;26.37;;
10403;SDS011;5248;47.374;8.486;2023-03-05T07:13:23;42.60;;;26.17;;
10403;SDS011;5248;47.374;8.486;2023-03-05T07:15:50;39.63;;;26.23;;
10403;SDS011;5248;47.374;8.486;2023-03-05T07:18:16;41.97;;;27.23;;
10403;SDS011;5248;47.374;8.486;2023-03-05T07:20:43;48.53;;;27.27;;
10403;SDS011;5248;47.374;8.486;2023-03-05T07:23:09;43.60;;;27.23;;
10403;SDS011;5248;47.374;8.486;2023-03-05T07:25:36;43.07;;;25.50;;
10403;SDS011;5248;47.374;8.486;2023-03-05T07:28:06;47.07;;;27.63;;
10403;SDS011;5248;47.374;8.486;2023-03-05T07:30:37;40.63;;;26.47;;
10403;SDS011;5248;47.374;8.486;2023-03-05T07:33:03;43.57;;;27.50;;
10403;SDS011;5248;47.374;8.486;2023-03-05T07:35:33;42.87;;;27.20;;
10403;SDS011;5248;47.374;8.486;2023-03-05T07:38:00;42.13;;;26.70;;
10403;SDS011;5248;47.374;8.486;2023-03-05T07:40:26;41.97;;;28.50;;
10403;SDS011;5248;47.374;8.486;2023-03-05T07:42:53;43.10;;;27.80;;
10403;SDS011;5248;47.374;8.486;2023-03-05T07:45:19;40.43;;;27.07;;
10403;SDS011;5248;47.374;8.486;2023-03-05T07:47:47;43.47;;;27.63;;
10403;SDS011;5248;47.374;8.486;2023-03-05T07:50:13;44.30;;;27.37;;
10403;SDS011;5248;47.374;8.486;2023-03-05T07:52:40;42.07;;;28.10;;
10403;SDS011;5248;47.374;8.486;2023-03-05T07:55:06;42.90;;;27.67;;
10403;SDS011;5248;47.374;8.486;2023-03-05T07:57:34;44.17;;;27.53;;
10403;SDS011;5248;47.374;8.486;2023-03-05T08:00:03;42.20;;;26.63;;
10403;SDS011;5248;47.374;8.486;2023-03-05T08:02:30;41.40;;;26.60;;
10403;SDS011;5248;47.374;8.486;2023-03-05T08:04:58;44.93;;;27.37;;
10403;SDS011;5248;47.374;8.486;2023-03-05T08:07:25;42.70;;;26.87;;
10403;SDS011;5248;47.374;8.486;2023-03-05T08:09:51;42.17;;;27.00;;
10403;SDS011;5248;47.374;8.486;2023-03-05T08:12:18;41.30;;;26.73;;
10403;SDS011;5248;47.374;8.486;2023-03-05T08:14:45;42.37;;;26.47;;
10403;SDS011;5248;47.374;8.486;2023-03-05T08:17:11;41.47;;;27.53;;
10403;SDS011;5248;47.374;8.486;2023-03-05T08:19:38;45.47;;;27.20;;
10403;SDS011;5248;47.374;8.486;2023-03-05T08:22:06;40.30;;;26.07;;
10403;SDS011;5248;47.374;8.486;2023-03-05T08:24:32;42.80;;;28.57;;
10403;SDS011;5248;47.374;8.486;2023-03-05T08:26:59;42.60;;;27.20;;
10403;SDS011;5248;47.374;8.486;2023-03-05T08:29:25;42.03;;;27.40;;
10403;SDS011;5248;47.374;8.486;2023-03-05T08:31:52;40.67;;;27.67;;
10403;SDS011;5248;47.374;8.486;2023-03-05T08:34:19;42.77;;;27.00;;
10403;SDS011;5248;47.374;8.486;2023-03-05T08:36:46;42.30;;;27.13;;
10403;SDS011;5248;47.374;8.486;2023-03-05T08:39:14;42.50;;;27.20;;
10403;SDS011;5248;47.374;8.486;2023-03-05T08:41:41;43.50;;;28.70;;
10403;SDS011;5248;47.374;8.486;2023-03-05T08:44:07;45.63;;;28.40;;
10403;SDS011;5248;47.374;8.486;2023-03-05T08:46:37;44.23;;;26.90;;
10403;SDS011;5248;47.374;8.486;2023-03-05T08:49:03;40.33;;;26.73;;
10403;SDS011;5248;47.374;8.486;2023-03-05T08:51:31;39.57;;;26.80;;
10403;SDS011;5248;47.374;8.486;2023-03-05T08:53:58;43.33;;;28.10;;
10403;SDS011;5248;47.374;8.486;2023-03-05T08:56:27;44.77;;;28.10;;
10403;SDS011;5248;47.374;8.486;2023-03-05T08:58:55;43.53;;;28.67;;
10403;SDS011;5248;47.374;8.486;2023-03-05T09:01:21;41.43;;;27.63;;
10403;SDS011;5248;47.374;8.486;2023-03-05T09:03:48;42.57;;;28.90;;
10403;SDS011;5248;47.374;8.486;2023-03-05T09:06:16;40.80;;;27.10;;
10403;SDS011;5248;47.374;8.486;2023-03-05T09:08:45;42.27;;;27.43;;
10403;SDS011;5248;47.374;8.486;2023-03-05T09:11:12;45.47;;;28.93;;
10403;SDS011;5248;47.374;8.486;2023-03-05T09:13:41;42.17;;;27.83;;
10403;SDS011;5248;47.374;8.486;2023-03-05T09:16:10;43.83;;;28.00;;
10403;SDS011;5248;47.374;8.486;2023-03-05T09:18:39;40.27;;;27.73;;
10403;SDS011;5248;47.374;8.486;2023-03-05T09:21:08;43.10;;;29.10;;
10403;SDS011;5248;47.374;8.486;2023-03-05T09:23:36;43.83;;;28.43;;
10403;SDS011;5248;47.374;8.486;2023-03-05T09:26:03;41.10;;;27.70;;
10403;SDS011;5248;47.374;8.486;2023-03-05T09:28:30;42.13;;;28.00;;
10403;SDS011;5248;47.374;8.486;2023-03-05T09:31:01;42.60;;;27.30;;
10403;SDS011;5248;47.374;8.486;2023-03-05T09:33:28;45.30;;;29.27;;
10403;SDS011;5248;47.374;8.486;2023-03-05T09:35:55;42.67;;;28.33;;
10403;SDS011;5248;47.374;8.486;2023-03-05T09:38:21;46.23;;;28.97;;
10403;SDS011;5248;47.374;8.486;2023-03-05T09:40:51;43.73;;;28.73;;
10403;SDS011;5248;47.374;8.486;2023-03-05T09:43:26;44.60;;;29.07;;
10403;SDS011;5248;47.374;8.486;2023-03-05T09:46:00;43.27;;;30.83;;
10403;SDS011;5248;47.374;8.486;2023-03-05T09:48:38;42.13;;;28.33;;
10403;SDS011;5248;47.374;8.486;2023-03-05T09:51:15;41.97;;;29.63;;
10403;SDS011;5248;47.374;8.486;2023-03-05T09:53:44;40.83;;;28.63;;
10403;SDS011;5248;47.374;8.486;2023-03-05T09:56:15;40.13;;;28.10;;
10403;SDS011;5248;47.374;8.486;2023-03-05T09:58:44;40.87;;;28.63;;
10403;SDS011;5248;47.374;8.486;2023-03-05T10:01:14;39.57;;;28.33;;
10403;SDS011;5248;47.374;8.486;2023-03-05T10:03:48;40.67;;;28.93;;
10403;SDS011;5248;47.374;8.486;2023-03-05T10:06:19;45.00;;;28.97;;
10403;SDS011;5248;47.374;8.486;2023-03-05T10:08:51;41.57;;;28.40;;
10403;SDS011;5248;47.374;8.486;2023-03-05T10:14:11;43.40;;;29.20;;
10403;SDS011;5248;47.374;8.486;2023-03-05T10:16:48;41.97;;;29.07;;
10403;SDS011;5248;47.374;8.486;2023-03-05T10:19:37;44.63;;;29.10;;
10403;SDS011;5248;47.374;8.486;2023-03-05T10:22:12;43.07;;;29.07;;
10403;SDS011;5248;47.374;8.486;2023-03-05T10:24:43;40.90;;;28.50;;
10403;SDS011;5248;47.374;8.486;2023-03-05T10:27:18;38.57;;;28.00;;
10403;SDS011;5248;47.374;8.486;2023-03-05T10:29:55;70.53;;;45.27;;
10403;SDS011;5248;47.374;8.486;2023-03-05T10:32:32;51.47;;;34.53;;
10403;SDS011;5248;47.374;8.486;2023-03-05T10:35:07;42.83;;;30.00;;
10403;SDS011;5248;47.374;8.486;2023-03-05T10:40:35;45.63;;;29.03;;
10403;SDS011;5248;47.374;8.486;2023-03-05T10:43:06;45.17;;;30.57;;
10403;SDS011;5248;47.374;8.486;2023-03-05T10:45:43;43.37;;;31.07;;
10403;SDS011;5248;47.374;8.486;2023-03-05T10:48:14;42.00;;;29.77;;
10403;SDS011;5248;47.374;8.486;2023-03-05T10:50:52;41.80;;;29.37;;
10403;SDS011;5248;47.374;8.486;2023-03-05T10:53:22;44.73;;;30.80;;
10403;SDS011;5248;47.374;8.486;2023-03-05T10:55:52;44.33;;;30.87;;
10403;SDS011;5248;47.374;8.486;2023-03-05T10:58:20;43.77;;;30.67;;
10403;SDS011;5248;47.374;8.486;2023-03-05T11:00:56;41.27;;;29.57;;
10403;SDS011;5248;47.374;8.486;2023-03-05T11:03:47;41.37;;;30.00;;
10403;SDS011;5248;47.374;8.486;2023-03-05T11:06:17;42.57;;;30.17;;
10403;SDS011;5248;47.374;8.486;2023-03-05T11:08:52;44.13;;;29.37;;
10403;SDS011;5248;47.374;8.486;2023-03-05T11:11:19;43.40;;;31.17;;
10403;SDS011;5248;47.374;8.486;2023-03-05T11:13:52;44.87;;;30.33;;
10403;SDS011;5248;47.374;8.486;2023-03-05T11:16:21;39.50;;;28.80;;
10403;SDS011;5248;47.374;8.486;2023-03-05T11:18:50;40.23;;;28.73;;
10403;SDS011;5248;47.374;8.486;2023-03-05T11:21:37;41.50;;;28.83;;
10403;SDS011;5248;47.374;8.486;2023-03-05T11:24:05;38.43;;;28.77;;
10403;SDS011;5248;47.374;8.486;2023-03-05T11:26:37;42.23;;;29.37;;
10403;SDS011;5248;47.374;8.486;2023-03-05T11:29:15;37.73;;;27.80;;
10403;SDS011;5248;47.374;8.486;2023-03-05T11:31:43;37.00;;;27.83;;
10403;SDS011;5248;47.374;8.486;2023-03-05T11:34:21;40.93;;;28.07;;
10403;SDS011;5248;47.374;8.486;2023-03-05T11:37:00;40.10;;;28.93;;
10403;SDS011;5248;47.374;8.486;2023-03-05T11:39:30;43.40;;;28.57;;
10403;SDS011;5248;47.374;8.486;2023-03-05T11:41:59;40.87;;;28.93;;
10403;SDS011;5248;47.374;8.486;2023-03-05T11:44:28;39.83;;;28.27;;
10403;SDS011;5248;47.374;8.486;2023-03-05T11:46:58;38.90;;;27.40;;
10403;SDS011;5248;47.374;8.486;2023-03-05T11:49:28;39.77;;;27.73;;
10403;SDS011;5248;47.374;8.486;2023-03-05T11:51:58;40.10;;;27.20;;
10403;SDS011;5248;47.374;8.486;2023-03-05T11:54:27;39.50;;;27.53;;
10403;SDS011;5248;47.374;8.486;2023-03-05T11:56:56;37.60;;;27.50;;
10403;SDS011;5248;47.374;8.486;2023-03-05T11:59:25;38.63;;;27.37;;
10403;SDS011;5248;47.374;8.486;2023-03-05T12:01:53;35.43;;;25.43;;
10403;SDS011;5248;47.374;8.486;2023-03-05T12:04:21;37.20;;;25.80;;
10403;SDS011;5248;47.374;8.486;2023-03-05T12:06:49;35.53;;;24.93;;
10403;SDS011;5248;47.374;8.486;2023-03-05T12:09:20;35.77;;;25.03;;
10403;SDS011;5248;47.374;8.486;2023-03-05T12:11:50;34.23;;;24.97;;
10403;SDS011;5248;47.374;8.486;2023-03-05T12:14:21;34.37;;;24.23;;
10403;SDS011;5248;47.374;8.486;2023-03-05T12:16:51;36.07;;;23.93;;
10403;SDS011;5248;47.374;8.486;2023-03-05T12:22:12;30.10;;;23.50;;
10403;SDS011;5248;47.374;8.486;2023-03-05T12:24:41;34.73;;;24.90;;
10403;SDS011;5248;47.374;8.486;2023-03-05T12:27:08;33.30;;;23.13;;
10403;SDS011;5248;47.374;8.486;2023-03-05T12:29:40;31.77;;;22.43;;
10403;SDS011;5248;47.374;8.486;2023-03-05T12:35:23;29.53;;;22.63;;
10403;SDS011;5248;47.374;8.486;2023-03-05T12:38:02;34.20;;;22.47;;
10403;SDS011;5248;47.374;8.486;2023-03-05T12:44:07;28.83;;;20.87;;
10403;SDS011;5248;47.374;8.486;2023-03-05T12:46:35;29.70;;;20.47;;
10403;SDS011;5248;47.374;8.486;2023-03-05T12:51:53;31.87;;;22.20;;
10403;SDS011;5248;47.374;8.486;2023-03-05T12:54:28;29.67;;;22.60;;
10403;SDS011;5248;47.374;8.486;2023-03-05T12:56:59;34.90;;;23.60;;
10403;SDS011;5248;47.374;8.486;2023-03-05T12:59:28;32.43;;;22.93;;
10403;SDS011;5248;47.374;8.486;2023-03-05T13:02:02;32.47;;;23.07;;
10403;SDS011;5248;47.374;8.486;2023-03-05T13:04:30;33.90;;;24.97;;
10403;SDS011;5248;47.374;8.486;2023-03-05T13:06:58;34.17;;;24.23;;
10403;SDS011;5248;47.374;8.486;2023-03-05T13:09:29;34.17;;;25.10;;
10403;SDS011;5248;47.374;8.486;2023-03-05T13:11:59;33.40;;;23.87;;
10403;SDS011;5248;47.374;8.486;2023-03-05T13:14:29;33.33;;;23.57;;
10403;SDS011;5248;47.374;8.486;2023-03-05T13:16:58;35.80;;;23.63;;
10403;SDS011;5248;47.374;8.486;2023-03-05T13:19:26;32.90;;;23.67;;
10403;SDS011;5248;47.374;8.486;2023-03-05T13:21:57;30.87;;;24.63;;
10403;SDS011;5248;47.374;8.486;2023-03-05T13:24:25;35.20;;;24.30;;
10403;SDS011;5248;47.374;8.486;2023-03-05T13:26:54;33.63;;;23.53;;
10403;SDS011;5248;47.374;8.486;2023-03-05T13:29:22;35.07;;;24.30;;
10403;SDS011;5248;47.374;8.486;2023-03-05T13:31:53;32.60;;;24.07;;
10403;SDS011;5248;47.374;8.486;2023-03-05T13:34:21;32.00;;;23.97;;
10403;SDS011;5248;47.374;8.486;2023-03-05T13:36:51;34.83;;;25.03;;
10403;SDS011;5248;47.374;8.486;2023-03-05T13:39:22;38.63;;;25.43;;
10403;SDS011;5248;47.374;8.486;2023-03-05T13:41:57;32.47;;;25.17;;
10403;SDS011;5248;47.374;8.486;2023-03-05T13:44:25;34.77;;;24.17;;
10403;SDS011;5248;47.374;8.486;2023-03-05T13:47:04;33.23;;;24.67;;
10403;SDS011;5248;47.374;8.486;2023-03-05T13:49:31;33.70;;;23.93;;
10403;SDS011;5248;47.374;8.486;2023-03-05T13:51:58;32.90;;;24.63;;
10403;SDS011;5248;47.374;8.486;2023-03-05T13:54:25;32.80;;;24.13;;
10403;SDS011;5248;47.374;8.486;2023-03-05T13:56:55;32.93;;;25.27;;
10403;SDS011;5248;47.374;8.486;2023-03-05T13:59:25;35.30;;;24.73;;
10403;SDS011;5248;47.374;8.486;2023-03-05T14:01:55;36.10;;;25.23;;
10403;SDS011;5248;47.374;8.486;2023-03-05T14:04:22;36.30;;;26.57;;
10403;SDS011;5248;47.374;8.486;2023-03-05T14:06:55;33.77;;;24.80;;
10403;SDS011;5248;47.374;8.486;2023-03-05T14:09:24;34.43;;;25.80;;
10403;SDS011;5248;47.374;8.486;2023-03-05T14:12:00;33.17;;;25.53;;
10403;SDS011;5248;47.374;8.486;2023-03-05T14:14:28;32.90;;;24.73;;
10403;SDS011;5248;47.374;8.486;2023-03-05T14:16:55;33.80;;;24.30;;
10403;SDS011;5248;47.374;8.486;2023-03-05T14:19:45;33.70;;;24.70;;
10403;SDS011;5248;47.374;8.486;2023-03-05T14:22:26;31.40;;;23.03;;
10403;SDS011;5248;47.374;8.486;2023-03-05T14:24:54;33.73;;;24.23;;
10403;SDS011;5248;47.374;8.486;2023-03-05T14:27:23;34.87;;;25.57;;
10403;SDS011;5248;47.374;8.486;2023-03-05T14:29:50;31.97;;;23.33;;
10403;SDS011;5248;47.374;8.486;2023-03-05T14:32:18;31.73;;;23.87;;
10403;SDS011;5248;47.374;8.486;2023-03-05T14:34:49;33.53;;;24.57;;
10403;SDS011;5248;47.374;8.486;2023-03-05T14:37:20;34.83;;;24.43;;
10403;SDS011;5248;47.374;8.486;2023-03-05T14:39:48;33.47;;;24.63;;
10403;SDS011;5248;47.374;8.486;2023-03-05T14:42:28;32.50;;;24.30;;
10403;SDS011;5248;47.374;8.486;2023-03-05T14:45:00;38.83;;;25.70;;
10403;SDS011;5248;47.374;8.486;2023-03-05T14:47:34;32.77;;;24.97;;
10403;SDS011;5248;47.374;8.486;2023-03-05T14:50:01;34.83;;;25.03;;
10403;SDS011;5248;47.374;8.486;2023-03-05T14:52:28;33.30;;;24.67;;
10403;SDS011;5248;47.374;8.486;2023-03-05T14:54:56;34.17;;;24.07;;
10403;SDS011;5248;47.374;8.486;2023-03-05T14:57:23;31.63;;;24.23;;
10403;SDS011;5248;47.374;8.486;2023-03-05T14:59:53;34.87;;;24.67;;
10403;SDS011;5248;47.374;8.486;2023-03-05T15:02:20;31.90;;;23.10;;